NCAR-RAP Real-Time Weather Data

Output produced by METARs form (20 February 2019  17:18 UTC)
found at http://weather.rap.ucar.edu/surface/
 
RJFM 201200Z 27012KT 9999 FEW020 SCT030 BKN100 12/05 Q1020
RJFM 201100Z 27012KT 9999 FEW020 BKN120 12/05 Q1020
RJFM 201000Z 27012KT 9999 FEW015 SCT150 13/04 Q1020
RJFM 200900Z 27009KT 240V310 9999 FEW015 14/04 Q1019
RJFM 200800Z 28011KT 9999 FEW015 16/03 Q1018
RJFM 200700Z 28017KT 9999 FEW020 18/04 Q1018
RJFM 200600Z 26020KT 9999 FEW020 19/06 Q1017
RJFM 200500Z 26022KT 9999 FEW030 19/06 Q1017
RJFM 200400Z 27020KT 9999 FEW030 19/06 Q1017
RJFM 200300Z 25018G28KT 9999 FEW030 18/08 Q1018
RJFM 200200Z 26019KT 9999 FEW030 17/08 Q1019
RJFM 200103Z 28019G29KT 9999 FEW030 16/08 Q1018 RMK 1CU030 A3008
RJFM 200100Z 28021KT 9999 FEW030 16/08 Q1018
RJFM 200000Z 27022KT 9999 FEW025 15/09 Q1018
RJFM 192300Z 27018G30KT 9999 FEW025 14/09 Q1018
RJFM 192200Z 27016KT 9999 FEW025 14/10 Q1017
RJFM 192110Z 26013KT 9999 FEW025 14/11 Q1017 RMK 1CU025 A3003
RJFM 191200Z 26014KT 9999 FEW020 BKN/// 17/14 Q1015
RJFM 191100Z 25011KT 9999 FEW020 BKN/// 17/14 Q1015
RJFM 191000Z 25011KT 9999 FEW015 BKN/// 18/14 Q1014
RJFM 190900Z 26018KT 9999 FEW015 SCT025 BKN/// 19/15 Q1013
RJFM 190800Z 26012KT 9999 FEW006 BKN025 BKN/// 20/17 Q1013
RJFM 190700Z 28003KT 240V310 8000 FEW001 SCT010 BKN040 18/17 Q1013
RJFM 190632Z 30003KT 260V330 4500 BR FEW001 SCT005 BKN025 16/16 Q1013 RMK 1ST001 3ST005 6CU025 A2991
RJFM 190600Z VRB01KT 3000 -SHRA BR FEW001 SCT003 BKN020 16/16 Q1012
RJFM 190500Z VRB01KT 3000 SHRA BR FEW003 SCT012 BKN020 15/15 Q1013
RJFM 190412Z VRB02KT 3500 SHRA BR FEW003 BKN012 BKN020 15/15 Q1013 RMK 1ST003 5CU012 7CU020 A2994
RJFM 190400Z VRB02KT 1800 R27/1200VP1800U +SHRA BR FEW003 SCT007 BKN012 14/14 Q1014
RJFM 190323Z VRB02KT 2000 R27/1000VP1800D +SHRA BR FEW003 SCT008 BKN015 14/14 Q1015 RMK 1ST003 3ST008 5CU015 A2997
RJFM 190310Z 26003KT 210V290 3000 SHRA BR FEW003 SCT007 BKN020 14/14 Q1015 RMK 1ST003 3ST007 5CU020 A2999
RJFM 190300Z 27003KT 230V300 4500 -SHRA BR FEW003 SCT007 BKN020 14/14 Q1015
RJFM 190200Z 31006KT 4000 -SHRA BR FEW003 SCT007 BKN015 13/13 Q1016
RJFM 190123Z 32004KT 3500 -SHRA BR FEW003 SCT007 BKN015 13/12 Q1016 RMK 2ST003 3ST007 6CU015 A3003
RJFM 190100Z 34003KT 290V070 2500 -SHRA BR SCT003 SCT007 BKN015 12/12 Q1017
RJFM 190039Z 28005KT 260V350 2500 -SHRA BR SCT002 SCT008 BKN015 12/12 Q1017 RMK 3ST002 4ST008 7CU015 A3006
RJFM 190000Z 27005KT 2000 -SHRA BR FEW003 BKN008 BKN015 12/12 Q1018
RJFM 182313Z 27004KT 1800 -SHRA BR FEW005 BKN008 BKN012 12/12 Q1019 RMK 1ST005 5ST008 7CU012 A3010
RJFM 182300Z 27006KT 1500 R27/P1800N -SHRA BR FEW005 BKN008 BKN012 11/11 Q1019
RJFM 182200Z 28004KT 1500 R27/P1800N -SHRA BR SCT004 BKN007 BKN012 11/11 Q1019
RJFM 182132Z 29004KT 2000 SHRA BR SCT004 BKN008 BKN015 11/11 Q1019 RMK 3ST004 5ST008 7CU015 A3011
RJFM 182110Z 31004KT 2000 -SHRA BR FEW008 BKN010 BKN015 11/11 Q1019 RMK 1ST008 5ST010 7CU015 A3011
RJFM 181200Z 29004KT 9999 FEW015 SCT070 BKN150 12/09 Q1023
RJFM 181100Z 28005KT 9999 FEW015 BKN070 12/09 Q1024
RJFM 181000Z 31004KT 9999 FEW015 SCT020 BKN070 12/08 Q1024
RJFM 180900Z 34005KT 9999 FEW015 BKN020 BKN025 13/08 Q1024
RJFM 180800Z 02005KT 350V050 9999 FEW015 BKN020 BKN025 13/08 Q1023
RJFM 180700Z 02004KT 340V070 9999 FEW015 SCT020 BKN025 13/08 Q1023
RJFM 180600Z 01007KT 9999 FEW015 SCT020 BKN025 13/07 Q1023